Latest Weather Observations for Cairns

IDQ60801

Issued at 4:32 pm EST Thursday 30 March 2017 (issued every 30 minutes, with the page automatically refreshed every 10 minutes)

About weather observations | Map of weather stations | Latest weather observations for QLD | Other Formats
Station Details ID: 031011 Name: CAIRNS AERO Lat: -16.87 Lon: 145.75 Height: 2.22 m
Data from the previous 72 hours. | See also: Recent months at Cairns
Date/Time
EST
Temp
°C
App
Temp
°C
Dew
Point
°C
Rel
Hum
%
Delta-T
°C
Wind Press
QNH
hPa
Press
MSL
hPa
Rain since
9am
mm
Dir  Spd
km/h
Gust
km/h
Spd
kts
Gust
kts
30/04:00pm 27.5 31.4 24.9 86 1.8 W 13 17 7 9 1006.4 1006.3 5.2
30/03:30pm 26.5 29.3 24.9 91 1.1 W 19 28 10 15 1007.1 1007.0 5.2
30/03:13pm 26.7 31.4 24.9 90 1.3 WNW 9 17 5 9 1007.4 1007.3 5.2
30/03:00pm 26.8 31.5 23.9 84 2.0 E 6 11 3 6 1007.6 1007.5 4.8
30/02:55pm 27.4 31.6 24.1 82 2.3 S 9 15 5 8 1008.0 1007.9 3.0
30/02:48pm 28.8 32.1 23.9 75 3.4 SSE 13 26 7 14 1008.0 1007.9 0.2
30/02:43pm 30.6 34.0 22.7 62 5.4 ESE 9 26 5 14 1007.9 1007.8 0.0
30/02:30pm 31.7 36.9 26.9 76 3.5 N 13 19 7 10 1008.0 1007.9 0.0
30/02:00pm 32.0 36.0 27.0 75 3.6 N 20 28 11 15 1007.5 1007.4 0.0
30/01:30pm 32.7 36.7 27.0 72 4.1 N 20 30 11 16 1007.6 1007.5 0.0
30/01:00pm 32.0 35.2 26.5 72 4.0 N 22 30 12 16 1008.1 1008.0 0.0
30/12:30pm 31.6 34.2 26.6 75 3.6 N 26 33 14 18 1008.8 1008.7 0.0
30/12:00pm 32.7 35.4 27.4 73 3.9 N 28 33 15 18 1009.1 1009.0 0.0
30/11:30am 32.3 34.7 26.4 71 4.2 N 26 33 14 18 1009.3 1009.2 0.0
30/11:00am 32.0 33.7 26.5 72 4.0 N 30 33 16 18 1009.5 1009.4 0.0
30/10:30am 32.6 36.5 26.9 72 4.1 N 20 33 11 18 1009.7 1009.6 0.0
30/10:00am 33.5 37.8 24.9 60 6.1 W 11 17 6 9 1009.8 1009.7 0.0
30/09:30am 33.0 37.0 25.0 63 5.7 W 13 19 7 10 1009.9 1009.8 0.0
30/09:00am 32.4 35.8 25.2 66 5.1 WNW 17 28 9 15 1009.9 1009.8 0.0
30/08:30am 31.4 34.6 25.0 69 4.5 NW 17 24 9 13 1010.0 1009.9 0.0
30/08:00am 30.2 35.2 24.8 73 3.8 W 7 13 4 7 1009.7 1009.6 0.0
30/07:30am 29.4 34.5 24.7 76 3.3 W 6 9 3 5 1009.4 1009.3 0.0
30/07:00am 28.3 32.7 24.5 80 2.6 W 9 13 5 7 1009.3 1009.2 0.0
30/06:30am 27.2 31.4 24.1 83 2.1 W 9 15 5 8 1008.8 1008.7 0.0
30/06:00am 27.1 31.5 24.4 85 1.9 NW 9 11 5 6 1008.4 1008.3 0.0
30/05:30am 27.2 31.6 24.5 85 1.9 W 9 13 5 7 1008.1 1008.0 0.0
30/05:00am 27.3 31.9 24.7 86 1.8 WNW 9 11 5 6 1008.0 1007.9 0.0
30/04:30am 27.4 32.0 24.8 86 1.8 W 9 11 5 6 1007.6 1007.5 0.0
30/04:00am 26.5 33.0 25.1 92 1.0 CALM 0 0 0 0 1007.4 1007.3 0.0
30/03:30am 26.5 31.6 24.7 90 1.3 NW 6 7 3 4 1007.2 1007.1 0.0
30/03:00am 27.2 32.6 25.4 90 1.3 WNW 7 9 4 5 1007.2 1007.1 0.0
30/02:30am 27.7 32.8 25.5 88 1.5 WNW 9 11 5 6 1007.2 1007.1 0.0
30/02:00am 27.8 32.8 25.4 87 1.7 WNW 9 9 5 5 1007.4 1007.3 0.0
30/01:30am 27.7 33.0 25.9 90 1.3 W 9 13 5 7 1007.6 1007.5 0.0
30/01:00am 28.4 34.7 26.8 91 1.1 WNW 7 9 4 5 1007.7 1007.6 0.0
30/12:30am 28.3 34.6 26.5 90 1.3 WNW 6 7 3 4 1007.9 1007.8 0.0
30/12:26am 28.5 35.3 26.7 90 1.3 WNW 4 7 2 4 1008.0 1007.9 0.0
30/12:00am 28.8 34.7 26.8 89 1.4 W 9 11 5 6 1008.0 1007.9 0.0
 
Date/Time
EST
Temp
°C
App
Temp
°C
Dew
Point
°C
Rel
Hum
%
Delta-T
°C
Wind Press
QNH
hPa
Press
MSL
hPa
Rain since
9am
mm
Dir  Spd
km/h
Gust
km/h
Spd
kts
Gust
kts
29/11:30pm 28.8 35.2 27.0 90 1.3 NW 7 9 4 5 1008.0 1007.9 0.0
29/11:00pm 29.1 35.2 27.1 89 1.4 WNW 9 11 5 6 1007.9 1007.8 0.0
29/10:30pm 28.8 35.0 26.6 88 1.6 WNW 7 9 4 5 1007.9 1007.8 0.0
29/10:00pm 29.2 35.3 27.0 88 1.6 W 9 13 5 7 1007.9 1007.8 0.0
29/09:30pm 29.5 35.9 27.5 89 1.4 WNW 9 11 5 6 1007.6 1007.5 0.0
29/09:00pm 29.5 35.9 27.5 89 1.4 WNW 9 13 5 7 1007.4 1007.3 0.0
29/08:30pm 29.6 35.9 27.4 88 1.6 WNW 9 13 5 7 1006.9 1006.8 0.0
29/08:00pm 29.8 35.6 27.2 86 1.9 WNW 11 17 6 9 1006.3 1006.2 0.0
29/07:30pm 29.8 35.9 27.6 88 1.6 NW 11 17 6 9 1005.9 1005.8 0.0
29/07:00pm 29.8 34.8 27.6 88 1.6 NNW 17 24 9 13 1005.5 1005.4 0.0
29/06:30pm 29.9 34.8 27.5 87 1.7 NNW 17 24 9 13 1005.1 1005.0 0.0
29/06:00pm 30.2 35.2 27.6 86 1.9 NNW 17 26 9 14 1004.4 1004.3 0.0
29/05:30pm 30.5 35.0 27.7 85 2.0 NNW 20 32 11 17 1003.8 1003.7 0.0
29/05:00pm 30.8 33.2 26.9 80 2.8 NNW 28 39 15 21 1003.5 1003.4 0.0
29/04:30pm 31.8 34.6 27.0 76 3.5 NNW 26 35 14 19 1002.9 1002.8 0.0
29/04:00pm 32.4 35.9 27.4 75 3.6 NNW 24 35 13 19 1002.8 1002.7 0.0
29/03:30pm 32.3 34.7 27.5 76 3.5 N 30 44 16 24 1002.7 1002.6 0.0
29/03:00pm 32.5 34.5 27.7 76 3.5 N 33 43 18 23 1002.8 1002.7 0.0
29/02:30pm 32.4 34.6 27.2 74 3.8 N 30 41 16 22 1003.1 1003.0 0.0
29/02:00pm 32.8 35.6 27.5 73 3.9 N 28 37 15 20 1003.3 1003.2 0.0
29/01:30pm 32.1 34.2 27.1 75 3.6 N 30 39 16 21 1003.5 1003.4 0.0
29/01:00pm 32.9 34.3 26.9 70 4.3 N 33 41 18 22 1003.6 1003.5 0.0
29/12:30pm 35.1 36.0 23.4 50 8.1 NW 24 37 13 20 1004.0 1003.9 0.0
29/12:00pm 35.3 38.1 24.9 55 7.4 NW 19 30 10 16 1004.5 1004.4 0.0
29/11:30am 34.9 37.1 23.9 53 7.7 WNW 19 30 10 16 1005.1 1005.0 0.0
29/11:00am 34.2 35.4 23.2 52 7.6 WNW 22 41 12 22 1005.3 1005.2 0.0
29/10:30am 33.8 34.8 23.5 55 7.2 WNW 24 39 13 21 1005.5 1005.4 0.0
29/10:00am 33.4 34.9 24.3 59 6.4 WNW 24 33 13 18 1005.6 1005.5 0.0
29/09:30am 32.7 35.1 24.2 61 5.9 NW 19 30 10 16 1005.6 1005.5 0.0
29/09:00am 32.3 35.3 24.6 64 5.4 NW 17 28 9 15 1005.5 1005.4 0.0
29/08:30am 31.3 34.9 24.4 66 4.8 NW 13 20 7 11 1005.3 1005.2 0.0
29/08:00am 30.7 35.2 24.6 70 4.3 NW 9 17 5 9 1005.1 1005.0 0.0
29/07:30am 29.8 34.4 24.7 74 3.6 NW 9 15 5 8 1004.7 1004.6 0.0
29/07:00am 28.6 32.2 24.4 78 2.9 NNW 13 17 7 9 1004.3 1004.2 0.0
29/06:30am 28.2 31.9 24.6 81 2.5 N 13 15 7 8 1004.0 1003.9 0.0
29/06:00am 27.9 31.5 24.3 81 2.5 NNW 13 17 7 9 1003.5 1003.4 0.0
29/05:30am 27.9 31.9 23.7 78 2.9 WNW 9 15 5 8 1003.2 1003.1 0.0
29/05:00am 27.8 31.8 23.8 79 2.8 WNW 9 13 5 7 1003.0 1002.9 0.0
29/04:30am 28.4 32.9 24.0 77 3.0 W 7 11 4 6 1002.6 1002.5 0.0
29/04:00am 28.5 32.8 24.3 78 2.9 W 9 13 5 7 1002.5 1002.4 0.0
29/03:30am 29.0 33.5 24.6 77 3.1 NW 9 15 5 8 1002.4 1002.3 0.0
29/03:00am 27.7 33.3 24.3 82 2.4 WSW 2 7 1 4 1002.4 1002.3 0.0
29/02:30am 28.7 34.6 24.7 79 2.8 WSW 2 7 1 4 1002.7 1002.6 0.0
29/02:00am 29.4 34.3 24.7 76 3.3 W 7 13 4 7 1002.9 1002.8 0.0
29/01:30am 29.4 34.1 24.9 77 3.2 W 9 13 5 7 1003.0 1002.9 0.0
29/01:00am 29.0 34.1 25.0 79 2.8 WNW 7 9 4 5 1003.1 1003.0 0.0
29/12:30am 29.2 33.8 24.7 77 3.1 W 9 11 5 6 1002.8 1002.7 0.0
29/12:00am 29.3 34.8 26.1 83 2.3 WNW 9 15 5 8 1003.1 1003.0 0.0
 
Date/Time
EST
Temp
°C
App
Temp
°C
Dew
Point
°C
Rel
Hum
%
Delta-T
°C
Wind Press
QNH
hPa
Press
MSL
hPa
Rain since
9am
mm
Dir  Spd
km/h
Gust
km/h
Spd
kts
Gust
kts
28/11:30pm 29.7 35.0 25.2 77 3.2 W 7 9 4 5 1003.4 1003.3 0.0
28/11:00pm 29.8 35.2 26.6 83 2.3 NW 11 19 6 10 1003.5 1003.4 0.0
28/10:30pm 30.0 35.9 26.8 83 2.3 NW 9 15 5 8 1003.8 1003.7 0.0
28/10:00pm 30.1 36.1 27.5 86 1.9 WNW 11 17 6 9 1003.8 1003.7 0.0
28/09:30pm 30.3 36.5 27.7 86 1.9 NW 11 17 6 9 1003.6 1003.5 0.0
28/09:00pm 30.3 36.3 27.5 85 2.0 NW 11 17 6 9 1003.3 1003.2 0.0
28/08:30pm 30.3 36.4 28.1 88 1.6 NW 13 20 7 11 1003.1 1003.0 0.0
28/08:00pm 30.3 36.7 27.5 85 2.0 WNW 9 15 5 8 1002.8 1002.7 0.0
28/07:30pm 30.6 36.0 27.2 82 2.5 NNW 13 20 7 11 1002.4 1002.3 0.0
28/07:00pm 31.0 36.0 26.5 77 3.2 NNW 13 24 7 13 1001.9 1001.8 0.0
28/06:30pm 31.4 35.4 26.2 74 3.7 NNW 17 24 9 13 1001.6 1001.5 0.0
28/06:00pm 31.9 36.2 25.5 69 4.6 NW 13 22 7 12 1001.2 1001.1 0.0
28/05:30pm 32.5 36.6 24.5 62 5.6 NW 11 19 6 10 1000.7 1000.6 0.0
28/05:00pm 33.0 36.4 25.3 64 5.5 NNW 17 22 9 12 1000.3 1000.2 0.0
28/04:30pm 35.4 38.6 23.7 50 8.2 NW 13 19 7 10 1000.2 1000.1 0.0
28/04:00pm 35.6 37.6 22.9 48 8.8 NW 17 28 9 15 1000.0 999.9 0.0
28/03:30pm 35.8 37.3 22.7 46 9.1 WNW 19 32 10 17 1000.2 1000.1 0.0
28/03:00pm 35.8 36.9 23.1 48 8.9 WNW 22 32 12 17 1000.2 1000.1 0.0
28/02:30pm 35.6 36.6 22.9 48 8.8 WNW 22 37 12 20 1000.5 1000.4 0.0
28/02:00pm 35.5 36.5 22.1 45 9.2 WNW 20 32 11 17 1000.6 1000.5 0.0
28/01:30pm 35.3 36.0 22.3 47 8.9 WNW 22 33 12 18 1001.1 1001.0 0.0
28/01:00pm 35.4 36.5 22.4 47 9.0 WNW 20 33 11 18 1001.6 1001.5 0.0
28/12:30pm 35.1 36.0 23.4 50 8.1 W 24 39 13 21 1002.2 1002.1 0.0
28/12:00pm 34.3 35.1 21.4 47 8.8 WSW 19 32 10 17 1002.8 1002.7 0.0
28/11:30am 34.2 36.4 23.2 52 7.6 W 17 32 9 17 1003.3 1003.2 0.0
28/11:00am 33.5 34.4 21.6 49 8.1 W 19 32 10 17 1004.0 1003.9 0.0
28/10:30am 33.0 34.6 23.3 56 6.7 W 20 30 11 16 1004.3 1004.2 0.0
28/10:00am 32.0 33.8 23.3 60 6.0 W 19 37 10 20 1004.7 1004.6 0.0
28/09:30am 31.6 32.8 23.2 61 5.8 W 22 33 12 18 1004.7 1004.6 0.0
28/09:00am 30.8 31.2 23.2 64 5.2 W 26 37 14 20 1004.9 1004.8 0.0
28/08:30am 30.3 32.3 22.2 62 5.5 W 15 28 8 15 1005.0 1004.9 0.0
28/08:00am 28.8 30.9 22.5 68 4.3 W 15 26 8 14 1004.7 1004.6 0.0
28/07:30am 28.1 31.6 22.1 70 4.0 SW 7 11 4 6 1004.5 1004.4 0.0
28/07:00am 27.5 30.6 21.5 70 4.0 WNW 7 15 4 8 1004.3 1004.2 0.0
28/06:30am 27.5 29.9 20.8 67 4.4 WSW 9 17 5 9 1004.2 1004.1 0.0
28/06:00am 28.1 29.5 20.4 63 5.1 WSW 13 17 7 9 1003.8 1003.7 0.0
28/05:30am 27.9 30.0 20.2 63 5.0 SW 9 15 5 8 1003.6 1003.5 0.0
28/05:00am 27.9 29.2 20.2 63 5.1 WSW 13 19 7 10 1003.4 1003.3 0.0
28/04:30am 27.6 28.9 20.2 64 4.8 WSW 13 19 7 10 1003.1 1003.0 0.0
28/04:00am 27.7 29.2 20.5 65 4.8 W 13 17 7 9 1003.1 1003.0 0.0
28/03:30am 25.6 28.9 21.9 80 2.5 SW 7 9 4 5 1003.3 1003.2 0.0
28/03:00am 25.5 29.7 22.4 83 2.1 WSW 4 9 2 5 1003.6 1003.5 0.0
28/02:30am 25.9 29.7 22.8 83 2.1 SW 7 9 4 5 1003.8 1003.7 0.0
28/02:00am 26.3 29.7 23.4 84 2.0 W 11 17 6 9 1003.9 1003.8 0.0
28/01:30am 25.7 30.3 24.1 91 1.1 W 7 9 4 5 1004.4 1004.3 0.0
28/01:00am 25.3 30.0 24.3 94 0.7 NW 7 7 4 4 1004.8 1004.7 0.0
28/12:30am 26.5 32.3 24.5 89 1.4 SSW 2 11 1 6 1004.9 1004.8 0.0
28/12:00am 26.4 33.1 25.4 94 0.7 CALM 0 7 0 4 1005.3 1005.2 0.0
 
Date/Time
EST
Temp
°C
App
Temp
°C
Dew
Point
°C
Rel
Hum
%
Delta-T
°C
Wind Press
QNH
hPa
Press
MSL
hPa
Rain since
9am
mm
Dir  Spd
km/h
Gust
km/h
Spd
kts
Gust
kts
27/11:30pm 26.3 32.8 25.1 93 0.8 CALM 0 0 0 0 1005.2 1005.1 0.0
27/11:00pm 27.0 33.7 25.4 91 1.1 CALM 0 6 0 3 1005.4 1005.3 0.0
27/10:30pm 27.7 33.1 25.5 88 1.5 W 7 9 4 5 1005.6 1005.5 0.0
27/10:00pm 28.4 32.8 25.6 85 2.0 SSE 13 19 7 10 1005.6 1005.5 0.0
27/09:30pm 28.1 33.2 26.1 89 1.4 SE 11 13 6 7 1005.3 1005.2 0.0
27/09:00pm 28.0 33.4 26.0 89 1.4 W 9 11 5 6 1005.0 1004.9 0.0
27/08:30pm 28.2 33.9 26.4 90 1.3 W 9 9 5 5 1005.0 1004.9 0.0
27/08:00pm 28.1 35.4 26.3 90 1.3 CALM 0 6 0 3 1004.8 1004.7 0.0
27/07:30pm 28.6 35.1 26.2 87 1.7 W 4 7 2 4 1004.5 1004.4 0.0
27/07:00pm 28.8 35.0 26.4 87 1.7 W 6 7 3 4 1004.2 1004.1 0.0
27/06:30pm 29.8 35.7 26.2 81 2.6 NE 7 7 4 4 1004.0 1003.9 0.0
27/06:00pm 30.4 35.9 26.1 78 3.1 NNE 9 11 5 6 1003.8 1003.7 0.0
27/05:30pm 31.0 36.6 26.3 76 3.4 NE 9 11 5 6 1003.6 1003.5 0.0
27/05:00pm 31.4 36.6 25.7 71 4.1 NNE 9 11 5 6 1003.3 1003.2 0.0

Other Formats:

Comma delimited format used in spreadsheet applications
http://www.bom.gov.au/fwo/IDQ60801/IDQ60801.94287.axf

JavaScript Object Notation format (JSON) in row-major order
http://www.bom.gov.au/fwo/IDQ60801/IDQ60801.94287.json